createdAt,value
2018-04-06T00:02:30.326Z,99742.19
2018-04-06T00:05:03.824Z,99739.02
2018-04-06T00:07:37.404Z,99738.03
2018-04-06T00:10:11.160Z,99730.85
2018-04-06T00:12:44.902Z,99734.13
2018-04-06T00:15:18.610Z,99727.66
2018-04-06T00:17:52.271Z,99726.87
2018-04-06T00:20:25.855Z,99728.55
2018-04-06T00:22:59.478Z,99730.70
2018-04-06T00:25:33.198Z,99729.17
2018-04-06T00:28:06.827Z,99729.94
2018-04-06T00:30:40.468Z,99726.50
2018-04-06T00:33:14.135Z,99726.70
2018-04-06T00:35:47.650Z,99727.78
2018-04-06T00:38:21.349Z,99726.48
2018-04-06T00:40:55.030Z,99730.51
2018-04-06T00:43:28.853Z,99726.96
2018-04-06T00:46:02.501Z,99723.63
2018-04-06T00:48:36.056Z,99725.00
2018-04-06T00:51:09.801Z,99720.59
2018-04-06T00:53:48.392Z,99716.44
2018-04-06T00:56:22.110Z,99717.36
2018-04-06T00:58:55.720Z,99719.94
2018-04-06T01:01:29.377Z,99720.98
2018-04-06T01:04:03.121Z,99724.59
2018-04-06T01:06:36.715Z,99719.06
2018-04-06T01:09:10.248Z,99716.95
2018-04-06T01:11:43.859Z,99715.44
2018-04-06T01:14:17.535Z,99714.86
2018-04-06T01:16:51.254Z,99720.88
2018-04-06T01:19:24.910Z,99707.27
2018-04-06T01:21:58.577Z,99713.65
2018-04-06T01:24:32.245Z,99710.96
2018-04-06T01:27:05.818Z,99704.33
2018-04-06T01:29:39.705Z,99708.80
2018-04-06T01:32:13.500Z,99714.92
2018-04-06T01:34:47.095Z,99713.65
2018-04-06T01:37:20.845Z,99711.08
2018-04-06T01:39:54.464Z,99713.28
2018-04-06T01:42:27.989Z,99713.16
2018-04-06T01:45:01.678Z,99712.47
2018-04-06T01:47:35.205Z,99712.52
2018-04-06T01:50:08.833Z,99716.53
2018-04-06T01:52:42.621Z,99713.89
2018-04-06T01:55:16.430Z,99712.34
2018-04-06T01:57:50.106Z,99711.19
2018-04-06T02:00:23.814Z,99709.56
2018-04-06T02:02:57.445Z,99706.06
2018-04-06T02:05:31.110Z,99704.71
2018-04-06T02:08:04.795Z,99701.05
2018-04-06T02:10:38.385Z,99704.52
2018-04-06T02:13:12.147Z,99705.69
2018-04-06T02:15:45.954Z,99703.55
2018-04-06T02:18:19.551Z,99708.58
2018-04-06T02:20:53.196Z,99703.86
2018-04-06T02:23:26.901Z,99704.05
2018-04-06T02:26:00.535Z,99709.63
2018-04-06T02:28:34.039Z,99704.92
2018-04-06T02:31:07.609Z,99702.77
2018-04-06T02:33:41.294Z,99708.01
2018-04-06T02:36:14.926Z,99708.32
2018-04-06T02:38:48.684Z,99704.34
2018-04-06T02:41:22.310Z,99704.64
2018-04-06T02:43:56.082Z,99702.08
2018-04-06T02:46:29.864Z,99696.08
2018-04-06T02:49:03.636Z,99689.56
2018-04-06T02:51:37.379Z,99697.58
2018-04-06T02:54:11.124Z,99695.84
2018-04-06T02:56:44.892Z,99700.45
2018-04-06T02:59:18.687Z,99704.42
2018-04-06T03:01:52.210Z,99705.53
2018-04-06T03:04:25.825Z,99704.80
2018-04-06T03:06:59.492Z,99700.84
2018-04-06T03:09:33.039Z,99697.50
2018-04-06T03:12:06.673Z,99698.95
2018-04-06T03:14:40.234Z,99690.14
2018-04-06T03:17:13.907Z,99688.80
2018-04-06T03:19:47.469Z,99686.70
2018-04-06T03:22:21.059Z,99692.59
2018-04-06T03:24:54.769Z,99698.30
2018-04-06T03:27:28.453Z,99693.52
2018-04-06T03:30:02.112Z,99685.77
2018-04-06T03:32:35.885Z,99684.78
2018-04-06T03:35:09.675Z,99672.66
2018-04-06T03:37:43.321Z,99686.93
2018-04-06T03:40:17.139Z,99687.57
2018-04-06T03:42:50.859Z,99681.11
2018-04-06T03:45:24.395Z,99690.25
2018-04-06T03:47:58.048Z,99684.72
2018-04-06T03:50:31.768Z,99677.97
2018-04-06T03:53:05.458Z,99677.86
2018-04-06T03:55:39.091Z,99691.89
2018-04-06T03:58:12.759Z,99688.22
2018-04-06T04:00:46.441Z,99686.05
2018-04-06T04:03:20.009Z,99690.42
2018-04-06T04:05:53.605Z,99681.64
2018-04-06T04:08:27.373Z,99686.52
2018-04-06T04:11:01.111Z,99688.69
2018-04-06T04:13:34.766Z,99684.84
2018-04-06T04:16:08.494Z,99684.61
2018-04-06T04:18:42.313Z,99688.69
2018-04-06T04:21:16.010Z,99688.22
2018-04-06T04:23:49.502Z,99682.98
2018-04-06T04:26:23.185Z,99692.77
2018-04-06T04:28:56.842Z,99687.23
2018-04-06T04:31:30.659Z,99679.36
2018-04-06T04:34:04.357Z,99681.05
2018-04-06T04:36:38.123Z,99674.07
2018-04-06T04:39:11.722Z,99682.88
2018-04-06T04:41:45.476Z,99678.39
2018-04-06T04:44:19.132Z,99685.31
2018-04-06T04:46:52.834Z,99680.02
2018-04-06T04:49:26.522Z,99689.30
2018-04-06T04:52:00.152Z,99691.45
2018-04-06T04:54:33.771Z,99691.57
2018-04-06T04:57:07.338Z,99682.14
2018-04-06T04:59:41.056Z,99683.28
2018-04-06T05:02:14.716Z,99683.83
2018-04-06T05:04:48.461Z,99696.17
2018-04-06T05:07:22.071Z,99692.80
2018-04-06T05:09:55.667Z,99694.48
2018-04-06T05:12:29.291Z,99692.97
2018-04-06T05:15:02.854Z,99693.38
2018-04-06T05:17:36.592Z,99692.02
2018-04-06T05:20:10.318Z,99693.52
2018-04-06T05:22:43.924Z,99699.52
2018-04-06T05:25:17.586Z,99692.42
2018-04-06T05:27:51.137Z,99691.83
2018-04-06T05:30:24.748Z,99693.23
2018-04-06T05:32:58.290Z,99691.07
2018-04-06T05:35:32.111Z,99680.70
2018-04-06T05:38:05.713Z,99678.75
2018-04-06T05:40:39.394Z,99676.13
2018-04-06T05:43:12.932Z,99670.22
2018-04-06T05:45:46.747Z,99671.55
2018-04-06T05:48:20.443Z,99666.28
2018-04-06T05:50:54.298Z,99669.23
2018-04-06T05:53:28.055Z,99666.47
2018-04-06T05:56:01.903Z,99667.45
2018-04-06T05:58:35.556Z,99663.72
2018-04-06T06:01:09.338Z,99656.38
2018-04-06T06:03:43.111Z,99654.08
2018-04-06T06:06:16.697Z,99650.33
2018-04-06T06:08:50.416Z,99658.63
2018-04-06T06:11:24.030Z,99646.39
2018-04-06T06:13:57.629Z,99658.55
2018-04-06T06:16:31.222Z,99656.53
2018-04-06T06:19:04.877Z,99657.08
2018-04-06T06:21:38.708Z,99657.33
2018-04-06T06:24:12.382Z,99655.58
2018-04-06T06:26:46.107Z,99656.69
2018-04-06T06:29:19.854Z,99652.95
2018-04-06T06:31:53.475Z,99659.95
2018-04-06T06:34:27.078Z,99648.69
2018-04-06T06:40:02.272Z,99645.15
2018-04-06T06:42:36.185Z,99642.94
2018-04-06T06:45:09.897Z,99640.59
2018-04-06T06:47:43.664Z,99643.13
2018-04-06T06:50:17.272Z,99644.92
2018-04-06T06:52:51.070Z,99640.84
2018-04-06T06:55:24.885Z,99644.57
2018-04-06T06:57:58.508Z,99641.29
2018-04-06T07:00:32.175Z,99654.70
2018-04-06T07:03:05.910Z,99625.70
2018-04-06T07:05:39.600Z,99616.45
2018-04-06T07:08:13.242Z,99613.68
2018-04-06T07:10:46.963Z,99606.19
2018-04-06T07:13:20.972Z,99594.89
2018-04-06T07:15:54.639Z,99589.64
2018-04-06T07:18:28.259Z,99591.87
2018-04-06T07:21:02.025Z,99581.77
2018-04-06T07:23:35.785Z,99569.13
2018-04-06T07:26:09.492Z,99575.78
2018-04-06T07:28:43.231Z,99571.03
2018-04-06T07:31:16.838Z,99564.11
2018-04-06T07:33:50.530Z,99551.84
2018-04-06T07:36:24.220Z,99558.46
2018-04-06T07:38:57.908Z,99568.13
2018-04-06T07:41:31.498Z,99569.33
2018-04-06T07:44:05.228Z,99560.65
2018-04-06T07:46:38.887Z,99566.06
2018-04-06T07:49:12.480Z,99568.36
2018-04-06T07:51:46.052Z,99550.95
2018-04-06T07:54:19.712Z,99559.34
2018-04-06T07:56:53.591Z,99554.88
2018-04-06T07:59:27.199Z,99557.59
2018-04-06T08:02:00.772Z,99573.13
2018-04-06T08:04:34.343Z,99562.56
2018-04-06T08:07:08.140Z,99566.94
2018-04-06T08:09:41.895Z,99563.59
2018-04-06T08:12:15.540Z,99556.77
2018-04-06T08:14:49.205Z,99556.34
2018-04-06T08:17:22.953Z,99560.99
2018-04-06T08:19:56.543Z,99561.05
2018-04-06T08:22:30.123Z,99563.80
2018-04-06T08:25:03.840Z,99559.73
2018-04-06T08:27:37.631Z,99581.72
2018-04-06T08:30:11.336Z,99576.13
2018-04-06T08:32:45.070Z,99571.53
2018-04-06T08:35:18.743Z,99572.89
2018-04-06T08:37:52.506Z,99571.69
2018-04-06T08:40:26.167Z,99566.94
2018-04-06T08:42:59.898Z,99565.02
2018-04-06T08:45:33.645Z,99555.07
2018-04-06T08:48:07.365Z,99566.80
2018-04-06T08:50:41.022Z,99575.45
2018-04-06T08:53:14.775Z,99551.33
2018-04-06T08:55:48.514Z,99546.71
2018-04-06T08:58:22.289Z,99553.11
2018-04-06T09:00:55.828Z,99549.02
2018-04-06T09:03:29.510Z,99551.16
2018-04-06T09:06:03.134Z,99545.73
2018-04-06T09:08:36.932Z,99543.05
2018-04-06T09:11:10.615Z,99542.91
2018-04-06T09:13:44.173Z,99538.27
2018-04-06T09:16:17.829Z,99551.74
2018-04-06T09:18:51.489Z,99539.42
2018-04-06T09:21:25.190Z,99539.98
2018-04-06T09:23:58.784Z,99531.45
2018-04-06T09:26:32.540Z,99535.19
2018-04-06T09:29:06.312Z,99534.58
2018-04-06T09:31:39.876Z,99525.54
2018-04-06T09:34:13.658Z,99517.46
2018-04-06T09:36:47.235Z,99512.39
2018-04-06T09:39:20.959Z,99509.73
2018-04-06T09:41:54.719Z,99515.39
2018-04-06T09:44:28.433Z,99517.97
2018-04-06T09:47:02.030Z,99518.38
2018-04-06T09:49:35.754Z,99504.18
2018-04-06T09:52:09.454Z,99512.33
2018-04-06T09:54:43.075Z,99498.41
2018-04-06T09:57:16.707Z,99496.93
2018-04-06T09:59:50.317Z,99484.47
2018-04-06T10:02:23.990Z,99493.97
2018-04-06T10:04:57.592Z,99497.64
2018-04-06T10:07:31.326Z,99498.09
2018-04-06T10:10:05.338Z,99495.53
2018-04-06T10:12:38.954Z,99487.19
2018-04-06T10:15:12.718Z,99480.86
2018-04-06T10:17:46.451Z,99477.11
2018-04-06T10:20:20.194Z,99481.75
2018-04-06T10:22:53.906Z,99476.07
2018-04-06T10:25:27.692Z,99472.23
2018-04-06T10:28:01.362Z,99482.42
2018-04-06T10:30:35.141Z,99476.51
2018-04-06T10:33:08.663Z,99466.48
2018-04-06T10:35:42.385Z,99461.29
2018-04-06T10:38:16.117Z,99455.22
2018-04-06T10:40:49.809Z,99471.48
2018-04-06T10:43:23.498Z,99455.88
2018-04-06T10:45:57.082Z,99454.81
2018-04-06T10:48:30.855Z,99439.70
2018-04-06T10:51:04.607Z,99436.00
2018-04-06T10:53:38.164Z,99430.11
2018-04-06T10:56:11.884Z,99429.27
2018-04-06T10:58:45.623Z,99430.06
2018-04-06T11:01:19.326Z,99419.52
2018-04-06T11:03:53.072Z,99424.89
2018-04-06T11:06:26.879Z,99424.78
2018-04-06T11:09:00.679Z,99421.91
2018-04-06T11:11:34.449Z,99413.72
2018-04-06T11:14:08.030Z,99414.91
2018-04-06T11:16:41.811Z,99422.60
2018-04-06T11:19:15.495Z,99413.42
2018-04-06T11:21:49.212Z,99413.34
2018-04-06T11:24:22.839Z,99408.82
2018-04-06T11:26:56.400Z,99398.40
2018-04-06T11:29:30.007Z,99406.05
2018-04-06T11:32:03.738Z,99396.91
2018-04-06T11:34:37.408Z,99398.01
2018-04-06T11:37:11.492Z,99395.65
2018-04-06T11:39:45.709Z,99399.37
2018-04-06T11:42:19.504Z,99396.34
2018-04-06T11:44:53.232Z,99387.87
2018-04-06T11:47:26.819Z,99390.21
2018-04-06T11:50:00.375Z,99376.91
2018-04-06T11:52:34.005Z,99386.81
2018-04-06T11:55:07.813Z,99391.67
2018-04-06T11:57:41.609Z,99373.16
2018-04-06T12:00:15.278Z,99366.64
2018-04-06T12:02:48.998Z,99359.09
2018-04-06T12:05:22.581Z,99358.45
2018-04-06T12:07:56.333Z,99359.18
2018-04-06T12:10:29.906Z,99349.95
2018-04-06T12:13:03.723Z,99337.91
2018-04-06T12:15:37.493Z,99354.00
2018-04-06T12:18:11.278Z,99350.47
2018-04-06T12:20:45.039Z,99345.53
2018-04-06T12:23:18.719Z,99330.03
2018-04-06T12:25:52.393Z,99330.36
2018-04-06T12:28:26.174Z,99324.04
2018-04-06T12:30:59.867Z,99326.84
2018-04-06T12:33:33.579Z,99325.80
2018-04-06T12:36:07.423Z,99323.08
2018-04-06T12:38:41.127Z,99314.86
2018-04-06T12:41:14.784Z,99298.72
2018-04-06T12:43:48.476Z,99304.55
2018-04-06T12:46:22.329Z,99290.77
2018-04-06T12:48:56.100Z,99290.92
2018-04-06T12:51:29.702Z,99279.98
2018-04-06T12:54:03.266Z,99290.37
2018-04-06T12:56:36.990Z,99270.29
2018-04-06T12:59:10.605Z,99265.56
2018-04-06T13:01:44.292Z,99266.19
2018-04-06T13:04:18.011Z,99253.80
2018-04-06T13:06:52.452Z,99247.05
2018-04-06T13:09:26.244Z,99249.21
2018-04-06T13:11:59.891Z,99253.02
2018-04-06T13:14:33.523Z,99251.70
2018-04-06T13:17:07.119Z,99244.55
2018-04-06T13:19:40.855Z,99239.00
2018-04-06T13:22:14.461Z,99239.67
2018-04-06T13:24:48.178Z,99229.13
2018-04-06T13:27:21.831Z,99226.03
2018-04-06T13:29:55.499Z,99218.94
2018-04-06T13:32:29.162Z,99214.92
2018-04-06T13:35:02.921Z,99221.42
2018-04-06T13:37:36.631Z,99213.95
2018-04-06T13:40:10.432Z,99214.98
2018-04-06T13:42:44.071Z,99209.52
2018-04-06T13:45:17.876Z,99204.29
2018-04-06T13:47:51.474Z,99203.45
2018-04-06T13:50:25.315Z,99190.41
2018-04-06T13:52:58.956Z,99177.55
2018-04-06T13:55:32.741Z,99172.83
2018-04-06T13:58:06.371Z,99169.20
2018-04-06T14:00:40.116Z,99161.92
2018-04-06T14:03:13.739Z,99150.33
2018-04-06T14:05:47.432Z,99153.82
2018-04-06T14:08:21.136Z,99145.88
2018-04-06T14:10:54.768Z,99154.05
2018-04-06T14:13:28.448Z,99153.42
2018-04-06T14:16:02.287Z,99165.16
2018-04-06T14:18:36.179Z,99146.02
2018-04-06T14:21:09.921Z,99139.52
2018-04-06T14:23:43.704Z,99127.26
2018-04-06T14:26:17.503Z,99124.02
2018-04-06T14:28:51.213Z,99123.80
2018-04-06T14:31:24.944Z,99116.30
2018-04-06T14:33:58.812Z,99113.54
2018-04-06T14:36:32.454Z,99110.62
2018-04-06T14:39:06.986Z,99105.63
2018-04-06T14:41:40.695Z,99111.63
2018-04-06T14:44:14.450Z,99105.88
2018-04-06T14:46:48.286Z,99090.25
2018-04-06T14:49:22.042Z,99090.44
2018-04-06T14:51:55.689Z,99083.31
2018-04-06T14:54:29.347Z,99063.95
2018-04-06T14:57:03.158Z,99074.14
2018-04-06T14:59:36.846Z,99071.07
2018-04-06T15:02:10.682Z,99084.50
2018-04-06T15:04:44.387Z,99074.14
2018-04-06T15:07:18.183Z,99071.06
2018-04-06T15:09:51.772Z,99071.91
2018-04-06T15:12:25.459Z,99070.80
2018-04-06T15:14:59.173Z,99076.13
2018-04-06T15:17:33.044Z,99054.31
2018-04-06T15:20:06.666Z,99042.09
2018-04-06T15:22:40.295Z,99059.01
2018-04-06T15:25:14.694Z,99044.04
2018-04-06T15:27:48.403Z,99051.47
2018-04-06T15:30:22.076Z,99049.44
2018-04-06T15:32:55.941Z,99058.73
2018-04-06T15:35:29.651Z,99051.33
2018-04-06T15:38:03.394Z,99048.97
2018-04-06T15:40:37.100Z,99045.23
2018-04-06T15:43:10.752Z,99039.91
2018-04-06T15:45:44.456Z,99045.59
2018-04-06T15:48:18.285Z,99034.91
2018-04-06T15:50:51.946Z,99035.03
2018-04-06T15:53:25.575Z,99031.34
2018-04-06T15:55:59.207Z,99026.84
2018-04-06T15:58:32.878Z,99034.91
2018-04-06T16:01:06.592Z,99025.04
2018-04-06T16:03:40.369Z,99027.22
2018-04-06T16:06:14.066Z,99027.97
2018-04-06T16:08:47.684Z,99017.54
2018-04-06T16:11:21.235Z,99034.72
2018-04-06T16:13:54.900Z,99024.15
2018-04-06T16:16:28.695Z,99019.66
2018-04-06T16:19:02.388Z,99029.82
2018-04-06T16:21:36.140Z,99031.06
2018-04-06T16:24:09.862Z,99025.87
2018-04-06T16:26:43.547Z,99023.08
2018-04-06T16:29:17.167Z,99024.94
2018-04-06T16:31:50.834Z,99021.83
2018-04-06T16:34:24.570Z,99030.71
2018-04-06T16:36:58.177Z,99020.92
2018-04-06T16:39:31.780Z,99022.12
2018-04-06T16:42:05.463Z,99013.32
2018-04-06T16:44:39.299Z,99013.59
2018-04-06T16:47:13.034Z,99012.81
2018-04-06T16:49:46.657Z,99011.05
2018-04-06T16:52:20.425Z,99009.14
2018-04-06T16:54:54.238Z,99009.83
2018-04-06T16:57:27.795Z,99001.53
2018-04-06T17:00:01.522Z,99010.47
2018-04-06T17:02:35.201Z,99007.27
2018-04-06T17:05:09.100Z,99014.07
2018-04-06T17:07:42.702Z,99018.37
2018-04-06T17:10:16.540Z,99015.73
2018-04-06T17:12:50.300Z,99023.05
2018-04-06T17:15:23.878Z,99020.53
2018-04-06T17:17:57.609Z,99009.45
2018-04-06T17:20:31.541Z,99005.16
2018-04-06T17:23:05.235Z,99014.52
2018-04-06T17:25:39.036Z,99012.22
2018-04-06T17:28:12.642Z,99014.00
2018-04-06T17:30:46.282Z,99010.00
2018-04-06T17:33:19.935Z,99011.38
2018-04-06T17:35:53.697Z,99011.97
2018-04-06T17:38:27.414Z,99012.55
2018-04-06T17:41:01.080Z,99017.05
2018-04-06T17:43:34.841Z,99013.73
2018-04-06T17:46:08.549Z,99008.05
2018-04-06T17:48:42.282Z,99010.77
2018-04-06T17:51:16.036Z,99011.58
2018-04-06T17:53:49.670Z,99018.38
2018-04-06T17:56:23.471Z,99009.89
2018-04-06T17:58:57.176Z,99015.54
2018-04-06T18:01:31.043Z,99017.94
2018-04-06T18:04:04.835Z,99014.02
2018-04-06T18:06:38.538Z,99010.55
2018-04-06T18:09:12.631Z,99005.53
2018-04-06T18:11:46.352Z,99011.29
2018-04-06T18:14:20.135Z,99001.44
2018-04-06T18:16:53.757Z,99001.27
2018-04-06T18:19:27.443Z,98993.41
2018-04-06T18:22:01.085Z,98990.13
2018-04-06T18:24:34.897Z,98999.48
2018-04-06T18:27:08.708Z,98996.55
2018-04-06T18:29:42.389Z,98996.99
2018-04-06T18:32:16.180Z,98994.54
2018-04-06T18:34:49.987Z,99004.45
2018-04-06T18:37:23.707Z,98992.85
2018-04-06T18:39:57.372Z,98996.59
2018-04-06T18:42:31.076Z,98989.33
2018-04-06T18:45:04.842Z,99001.30
2018-04-06T18:47:38.562Z,99000.61
2018-04-06T18:50:12.207Z,98999.14
2018-04-06T18:52:46.040Z,98989.59
2018-04-06T18:55:19.964Z,98995.34
2018-04-06T18:57:53.590Z,98992.51
2018-04-06T19:00:27.138Z,98983.73
2018-04-06T19:03:00.894Z,98987.58
2018-04-06T19:05:34.612Z,98983.33
2018-04-06T19:08:08.172Z,98982.44
2018-04-06T19:10:41.912Z,98976.28
2018-04-06T19:13:15.666Z,98971.16
2018-04-06T19:15:49.385Z,98971.78
2018-04-06T19:18:23.533Z,98970.06
2018-04-06T19:20:57.349Z,98967.55
2018-04-06T19:23:31.123Z,98957.19
2018-04-06T19:26:04.687Z,98964.14
2018-04-06T19:28:38.349Z,98959.08
2018-04-06T19:31:12.154Z,98952.09
2018-04-06T19:33:45.830Z,98950.86
2018-04-06T19:36:19.566Z,98944.09
2018-04-06T19:38:53.138Z,98937.03
2018-04-06T19:41:26.823Z,98942.95
2018-04-06T19:44:00.772Z,98927.45
2018-04-06T19:46:34.441Z,98918.98
2018-04-06T19:49:08.005Z,98917.70
2018-04-06T19:51:41.683Z,98913.37
2018-04-06T19:54:15.334Z,98919.03
2018-04-06T19:56:48.934Z,98921.77
2018-04-06T19:59:22.692Z,98921.22
2018-04-06T20:01:56.418Z,98914.58
2018-04-06T20:04:30.131Z,98914.08
2018-04-06T20:07:04.075Z,98920.00
2018-04-06T20:09:37.848Z,98913.67
2018-04-06T20:12:11.594Z,98908.71
2018-04-06T20:14:45.423Z,98907.39
2018-04-06T20:17:19.107Z,98905.88
2018-04-06T20:19:52.966Z,98901.20
2018-04-06T20:22:26.821Z,98898.64
2018-04-06T20:25:00.454Z,98882.79
2018-04-06T20:27:34.146Z,98901.17
2018-04-06T20:30:07.904Z,98884.22
2018-04-06T20:32:41.596Z,98875.44
2018-04-06T20:35:15.324Z,98890.98
2018-04-06T20:37:49.051Z,98881.39
2018-04-06T20:40:22.840Z,98860.13
2018-04-06T20:42:56.370Z,98867.30
2018-04-06T20:45:30.173Z,98866.41
2018-04-06T20:48:03.903Z,98868.24
2018-04-06T20:50:37.574Z,98858.65
2018-04-06T20:53:11.584Z,98865.13
2018-04-06T20:55:45.263Z,98855.05
2018-04-06T20:58:18.861Z,98852.56
2018-04-06T21:00:52.681Z,98856.47
2018-04-06T21:03:26.358Z,98855.34
2018-04-06T21:05:59.989Z,98849.14
2018-04-06T21:08:33.742Z,98842.41
2018-04-06T21:11:07.404Z,98845.06
2018-04-06T21:13:41.262Z,98840.02
2018-04-06T21:16:14.915Z,98829.77
2018-04-06T21:18:48.672Z,98835.47
2018-04-06T21:21:22.319Z,98824.72
2018-04-06T21:23:56.138Z,98821.40
2018-04-06T21:26:29.959Z,98829.75
2018-04-06T21:29:03.702Z,98822.28
2018-04-06T21:31:37.659Z,98820.83
2018-04-06T21:34:11.318Z,98810.39
2018-04-06T21:36:45.122Z,98814.50
2018-04-06T21:39:18.890Z,98819.00
2018-04-06T21:41:52.454Z,98809.78
2018-04-06T21:44:26.139Z,98809.58
2018-04-06T21:46:59.754Z,98815.32
2018-04-06T21:49:33.283Z,98805.41
2018-04-06T21:52:07.046Z,98808.70
2018-04-06T21:54:40.831Z,98797.39
2018-04-06T21:57:14.502Z,98799.66
2018-04-06T21:59:48.512Z,98794.22
2018-04-06T22:02:22.104Z,98798.30
2018-04-06T22:04:55.881Z,98785.21
2018-04-06T22:07:29.561Z,98791.76
2018-04-06T22:10:03.379Z,98788.47
2018-04-06T22:12:36.994Z,98781.11
2018-04-06T22:15:10.669Z,98780.63
2018-04-06T22:17:44.370Z,98779.61
2018-04-06T22:20:18.198Z,98792.39
2018-04-06T22:22:51.971Z,98787.00
2018-04-06T22:25:25.610Z,98789.88
2018-04-06T22:27:59.456Z,98790.61
2018-04-06T22:30:33.218Z,98789.02
2018-04-06T22:33:06.905Z,98779.34
2018-04-06T22:35:40.632Z,98782.80
2018-04-06T22:38:14.314Z,98793.27
2018-04-06T22:40:47.878Z,98784.87
2018-04-06T22:43:21.663Z,98803.64
2018-04-06T22:45:55.712Z,98781.02
2018-04-06T22:48:29.367Z,98796.37
2018-04-06T22:51:03.167Z,98784.95
2018-04-06T22:53:36.714Z,98791.17
2018-04-06T22:56:10.564Z,98791.34
2018-04-06T22:58:44.258Z,98779.42
2018-04-06T23:01:17.991Z,98785.23
2018-04-06T23:03:51.576Z,98779.63
2018-04-06T23:06:25.262Z,98780.33
2018-04-06T23:08:58.980Z,98775.04
2018-04-06T23:11:32.531Z,98791.21
2018-04-06T23:14:06.294Z,98787.38
2018-04-06T23:16:39.860Z,98785.69
2018-04-06T23:19:13.582Z,98783.84
2018-04-06T23:21:47.235Z,98788.56
2018-04-06T23:24:20.963Z,98779.75
2018-04-06T23:26:54.924Z,98785.53
2018-04-06T23:29:28.474Z,98778.95
2018-04-06T23:32:02.195Z,98781.47
2018-04-06T23:34:35.850Z,98783.36
2018-04-06T23:37:09.663Z,98788.13
2018-04-06T23:39:43.308Z,98776.46
2018-04-06T23:42:16.982Z,98778.22
2018-04-06T23:44:50.695Z,98764.23
2018-04-06T23:47:24.371Z,98767.81
2018-04-06T23:49:58.068Z,98767.83
2018-04-06T23:52:31.854Z,98762.17
2018-04-06T23:55:05.523Z,98756.08
2018-04-06T23:57:39.217Z,98762.00
